sensor_id;sensor_type;location;lat;lon;timestamp;temperature;humidity
63051;SHT30;49136;47.416;19.402;2022-12-18T00:01:41;-1.18;94.40
63051;SHT30;49136;47.416;19.402;2022-12-18T00:04:11;-1.15;95.21
63051;SHT30;49136;47.416;19.402;2022-12-18T00:06:48;-1.15;94.60
63051;SHT30;49136;47.416;19.402;2022-12-18T00:09:13;-1.12;95.48
63051;SHT30;49136;47.416;19.402;2022-12-18T00:11:38;-1.15;94.65
63051;SHT30;49136;47.416;19.402;2022-12-18T00:14:04;-1.15;94.97
63051;SHT30;49136;47.416;19.402;2022-12-18T00:20:12;-1.14;95.37
63051;SHT30;49136;47.416;19.402;2022-12-18T00:22:37;-1.12;95.07
63051;SHT30;49136;47.416;19.402;2022-12-18T00:25:03;-1.12;95.54
63051;SHT30;49136;47.416;19.402;2022-12-18T00:27:49;-1.08;95.47
63051;SHT30;49136;47.416;19.402;2022-12-18T00:30:14;-1.11;95.73
63051;SHT30;49136;47.416;19.402;2022-12-18T00:32:40;-1.08;96.26
63051;SHT30;49136;47.416;19.402;2022-12-18T00:35:06;-1.07;95.94
63051;SHT30;49136;47.416;19.402;2022-12-18T00:38:06;-1.09;96.17
63051;SHT30;49136;47.416;19.402;2022-12-18T00:40:31;-1.08;95.92
63051;SHT30;49136;47.416;19.402;2022-12-18T00:42:57;-1.08;95.94
63051;SHT30;49136;47.416;19.402;2022-12-18T00:45:30;-1.08;96.40
63051;SHT30;49136;47.416;19.402;2022-12-18T00:50:59;-1.09;95.48
63051;SHT30;49136;47.416;19.402;2022-12-18T00:53:24;-1.07;95.28
63051;SHT30;49136;47.416;19.402;2022-12-18T00:55:49;-1.08;95.51
63051;SHT30;49136;47.416;19.402;2022-12-18T00:58:28;-1.05;94.97
63051;SHT30;49136;47.416;19.402;2022-12-18T01:00:53;-1.08;95.03
63051;SHT30;49136;47.416;19.402;2022-12-18T01:03:19;-1.08;93.97
63051;SHT30;49136;47.416;19.402;2022-12-18T01:05:44;-1.07;93.85
63051;SHT30;49136;47.416;19.402;2022-12-18T01:08:10;-1.05;95.39
63051;SHT30;49136;47.416;19.402;2022-12-18T01:10:36;-1.05;95.33
63051;SHT30;49136;47.416;19.402;2022-12-18T01:13:04;-1.05;95.47
63051;SHT30;49136;47.416;19.402;2022-12-18T01:15:30;-1.08;95.79
63051;SHT30;49136;47.416;19.402;2022-12-18T01:17:57;-1.05;96.78
63051;SHT30;49136;47.416;19.402;2022-12-18T01:20:23;-1.07;96.49
63051;SHT30;49136;47.416;19.402;2022-12-18T01:22:48;-1.09;96.30
63051;SHT30;49136;47.416;19.402;2022-12-18T01:25:13;-1.08;96.59
63051;SHT30;49136;47.416;19.402;2022-12-18T01:28:09;-1.11;96.42
63051;SHT30;49136;47.416;19.402;2022-12-18T01:30:34;-1.15;96.37
63051;SHT30;49136;47.416;19.402;2022-12-18T01:33:01;-1.15;96.31
63051;SHT30;49136;47.416;19.402;2022-12-18T01:35:26;-1.18;96.45
63051;SHT30;49136;47.416;19.402;2022-12-18T01:37:58;-1.22;96.52
63051;SHT30;49136;47.416;19.402;2022-12-18T01:40:23;-1.28;95.90
63051;SHT30;49136;47.416;19.402;2022-12-18T01:42:53;-1.31;96.50
63051;SHT30;49136;47.416;19.402;2022-12-18T01:45:25;-1.31;96.99
63051;SHT30;49136;47.416;19.402;2022-12-18T01:47:57;-1.32;97.18
63051;SHT30;49136;47.416;19.402;2022-12-18T01:50:39;-1.32;97.22
63051;SHT30;49136;47.416;19.402;2022-12-18T01:53:10;-1.34;96.94
63051;SHT30;49136;47.416;19.402;2022-12-18T01:55:48;-1.31;97.29
63051;SHT30;49136;47.416;19.402;2022-12-18T01:58:24;-1.34;97.14
63051;SHT30;49136;47.416;19.402;2022-12-18T02:00:54;-1.34;97.30
63051;SHT30;49136;47.416;19.402;2022-12-18T02:03:19;-1.35;97.22
63051;SHT30;49136;47.416;19.402;2022-12-18T02:12:42;-1.39;97.57
63051;SHT30;49136;47.416;19.402;2022-12-18T02:18:03;-1.42;96.89
63051;SHT30;49136;47.416;19.402;2022-12-18T02:23:45;-1.45;94.89
63051;SHT30;49136;47.416;19.402;2022-12-18T02:26:33;-1.42;94.86
63051;SHT30;49136;47.416;19.402;2022-12-18T02:32:08;-1.42;95.30
63051;SHT30;49136;47.416;19.402;2022-12-18T02:34:37;-1.43;94.89
63051;SHT30;49136;47.416;19.402;2022-12-18T02:37:14;-1.42;95.25
63051;SHT30;49136;47.416;19.402;2022-12-18T02:39:43;-1.40;94.92
63051;SHT30;49136;47.416;19.402;2022-12-18T02:42:10;-1.43;95.22
63051;SHT30;49136;47.416;19.402;2022-12-18T02:44:47;-1.43;95.32
63051;SHT30;49136;47.416;19.402;2022-12-18T02:47:18;-1.45;95.23
63051;SHT30;49136;47.416;19.402;2022-12-18T02:57:35;-1.47;95.53
63051;SHT30;49136;47.416;19.402;2022-12-18T03:02:51;-1.53;96.84
63051;SHT30;49136;47.416;19.402;2022-12-18T03:05:22;-1.55;96.05
63051;SHT30;49136;47.416;19.402;2022-12-18T03:08:26;-1.56;97.05
63051;SHT30;49136;47.416;19.402;2022-12-18T03:11:02;-1.55;97.02
63051;SHT30;49136;47.416;19.402;2022-12-18T03:13:54;-1.57;97.31
63051;SHT30;49136;47.416;19.402;2022-12-18T03:16:25;-1.63;96.98
63051;SHT30;49136;47.416;19.402;2022-12-18T03:19:24;-1.64;97.08
63051;SHT30;49136;47.416;19.402;2022-12-18T03:21:54;-1.70;97.52
63051;SHT30;49136;47.416;19.402;2022-12-18T03:24:21;-1.73;98.27
63051;SHT30;49136;47.416;19.402;2022-12-18T03:26:53;-1.74;98.71
63051;SHT30;49136;47.416;19.402;2022-12-18T03:35:07;-1.85;98.49
63051;SHT30;49136;47.416;19.402;2022-12-18T03:37:37;-1.98;98.65
63051;SHT30;49136;47.416;19.402;2022-12-18T03:40:04;-2.02;99.57
63051;SHT30;49136;47.416;19.402;2022-12-18T03:42:45;-2.15;99.90
63051;SHT30;49136;47.416;19.402;2022-12-18T03:45:53;-2.26;99.99
63051;SHT30;49136;47.416;19.402;2022-12-18T03:48:32;-2.41;99.99
63051;SHT30;49136;47.416;19.402;2022-12-18T03:51:07;-2.46;99.99
63051;SHT30;49136;47.416;19.402;2022-12-18T03:54:18;-2.57;99.99
63051;SHT30;49136;47.416;19.402;2022-12-18T03:56:21;-2.71;99.99
63051;SHT30;49136;47.416;19.402;2022-12-18T03:58:50;-2.81;99.99
63051;SHT30;49136;47.416;19.402;2022-12-18T04:01:22;-2.84;99.99
63051;SHT30;49136;47.416;19.402;2022-12-18T04:03:49;-2.95;99.99
63051;SHT30;49136;47.416;19.402;2022-12-18T04:06:16;-3.06;99.99
63051;SHT30;49136;47.416;19.402;2022-12-18T04:08:43;-3.13;99.99
63051;SHT30;49136;47.416;19.402;2022-12-18T04:11:09;-3.17;99.99
63051;SHT30;49136;47.416;19.402;2022-12-18T04:13:36;-3.20;99.99
63051;SHT30;49136;47.416;19.402;2022-12-18T04:16:02;-3.26;99.99
63051;SHT30;49136;47.416;19.402;2022-12-18T04:18:31;-3.31;99.99
63051;SHT30;49136;47.416;19.402;2022-12-18T04:20:56;-3.37;99.99
63051;SHT30;49136;47.416;19.402;2022-12-18T04:23:22;-3.44;99.99
63051;SHT30;49136;47.416;19.402;2022-12-18T04:25:47;-3.52;99.99
63051;SHT30;49136;47.416;19.402;2022-12-18T04:28:17;-3.59;99.99
63051;SHT30;49136;47.416;19.402;2022-12-18T04:30:43;-3.63;99.99
63051;SHT30;49136;47.416;19.402;2022-12-18T04:33:12;-3.68;99.99
63051;SHT30;49136;47.416;19.402;2022-12-18T04:35:39;-3.62;99.99
63051;SHT30;49136;47.416;19.402;2022-12-18T04:38:06;-3.56;99.99
63051;SHT30;49136;47.416;19.402;2022-12-18T04:41:01;-3.62;99.99
63051;SHT30;49136;47.416;19.402;2022-12-18T04:43:26;-3.72;99.99
63051;SHT30;49136;47.416;19.402;2022-12-18T04:45:52;-3.76;99.99
63051;SHT30;49136;47.416;19.402;2022-12-18T04:51:12;-3.93;99.99
63051;SHT30;49136;47.416;19.402;2022-12-18T04:53:37;-3.98;99.99
63051;SHT30;49136;47.416;19.402;2022-12-18T04:56:11;-4.00;99.99
63051;SHT30;49136;47.416;19.402;2022-12-18T04:58:38;-4.06;99.99
63051;SHT30;49136;47.416;19.402;2022-12-18T05:01:04;-4.06;99.99
63051;SHT30;49136;47.416;19.402;2022-12-18T05:03:30;-4.11;99.99
63051;SHT30;49136;47.416;19.402;2022-12-18T05:05:56;-4.07;99.99
63051;SHT30;49136;47.416;19.402;2022-12-18T05:08:26;-4.14;99.99
63051;SHT30;49136;47.416;19.402;2022-12-18T05:11:01;-4.21;99.99
63051;SHT30;49136;47.416;19.402;2022-12-18T05:13:27;-4.26;99.99
63051;SHT30;49136;47.416;19.402;2022-12-18T05:15:54;-4.29;99.99
63051;SHT30;49136;47.416;19.402;2022-12-18T05:18:44;-4.35;99.99
63051;SHT30;49136;47.416;19.402;2022-12-18T05:21:09;-4.44;99.99
63051;SHT30;49136;47.416;19.402;2022-12-18T05:23:35;-4.48;99.99
63051;SHT30;49136;47.416;19.402;2022-12-18T05:26:02;-4.53;99.99
63051;SHT30;49136;47.416;19.402;2022-12-18T05:28:31;-4.60;99.99
63051;SHT30;49136;47.416;19.402;2022-12-18T05:31:00;-4.63;99.99
63051;SHT30;49136;47.416;19.402;2022-12-18T05:33:30;-4.62;99.99
63051;SHT30;49136;47.416;19.402;2022-12-18T05:35:58;-4.63;99.99
63051;SHT30;49136;47.416;19.402;2022-12-18T05:38:39;-4.62;99.99
63051;SHT30;49136;47.416;19.402;2022-12-18T05:41:05;-4.65;99.99
63051;SHT30;49136;47.416;19.402;2022-12-18T05:43:33;-4.67;99.99
63051;SHT30;49136;47.416;19.402;2022-12-18T05:46:03;-4.74;99.99
63051;SHT30;49136;47.416;19.402;2022-12-18T05:48:29;-4.77;99.99
63051;SHT30;49136;47.416;19.402;2022-12-18T05:50:55;-4.83;99.99
63051;SHT30;49136;47.416;19.402;2022-12-18T05:53:20;-4.81;99.99
63051;SHT30;49136;47.416;19.402;2022-12-18T05:55:46;-4.83;99.99
63051;SHT30;49136;47.416;19.402;2022-12-18T05:58:13;-4.92;99.99
63051;SHT30;49136;47.416;19.402;2022-12-18T06:00:41;-5.00;99.99
63051;SHT30;49136;47.416;19.402;2022-12-18T06:03:08;-5.04;99.99
63051;SHT30;49136;47.416;19.402;2022-12-18T06:05:41;-5.02;99.99
63051;SHT30;49136;47.416;19.402;2022-12-18T06:08:07;-5.04;99.99
63051;SHT30;49136;47.416;19.402;2022-12-18T06:10:41;-5.12;99.99
63051;SHT30;49136;47.416;19.402;2022-12-18T06:13:07;-5.16;99.99
63051;SHT30;49136;47.416;19.402;2022-12-18T06:15:32;-5.25;99.99
63051;SHT30;49136;47.416;19.402;2022-12-18T06:18:00;-5.27;99.99
63051;SHT30;49136;47.416;19.402;2022-12-18T06:20:34;-5.30;99.99
63051;SHT30;49136;47.416;19.402;2022-12-18T06:23:02;-5.30;99.99
63051;SHT30;49136;47.416;19.402;2022-12-18T06:25:31;-5.35;99.99
63051;SHT30;49136;47.416;19.402;2022-12-18T06:27:58;-5.35;99.99
63051;SHT30;49136;47.416;19.402;2022-12-18T06:30:38;-5.35;99.99
63051;SHT30;49136;47.416;19.402;2022-12-18T06:33:03;-5.39;99.99
63051;SHT30;49136;47.416;19.402;2022-12-18T06:35:28;-5.42;99.99
63051;SHT30;49136;47.416;19.402;2022-12-18T06:37:54;-5.44;99.99
63051;SHT30;49136;47.416;19.402;2022-12-18T06:43:31;-5.43;99.99
63051;SHT30;49136;47.416;19.402;2022-12-18T06:46:00;-5.27;99.99
63051;SHT30;49136;47.416;19.402;2022-12-18T06:48:26;-5.26;99.99
63051;SHT30;49136;47.416;19.402;2022-12-18T06:50:51;-5.18;99.99
63051;SHT30;49136;47.416;19.402;2022-12-18T06:53:42;-5.19;99.99
63051;SHT30;49136;47.416;19.402;2022-12-18T06:56:08;-5.13;99.99
63051;SHT30;49136;47.416;19.402;2022-12-18T06:58:33;-5.09;99.99
63051;SHT30;49136;47.416;19.402;2022-12-18T07:01:10;-5.08;99.99
63051;SHT30;49136;47.416;19.402;2022-12-18T07:03:38;-5.09;99.99
63051;SHT30;49136;47.416;19.402;2022-12-18T07:06:03;-5.11;99.99
63051;SHT30;49136;47.416;19.402;2022-12-18T07:08:30;-5.11;99.99
63051;SHT30;49136;47.416;19.402;2022-12-18T07:10:55;-5.11;99.99
63051;SHT30;49136;47.416;19.402;2022-12-18T07:13:24;-5.04;99.99
63051;SHT30;49136;47.416;19.402;2022-12-18T07:15:50;-4.98;99.99
63051;SHT30;49136;47.416;19.402;2022-12-18T07:18:15;-4.90;99.99
63051;SHT30;49136;47.416;19.402;2022-12-18T07:20:41;-4.84;99.99
63051;SHT30;49136;47.416;19.402;2022-12-18T07:23:17;-4.79;99.99
63051;SHT30;49136;47.416;19.402;2022-12-18T07:25:43;-4.72;99.99
63051;SHT30;49136;47.416;19.402;2022-12-18T07:28:08;-4.67;99.99
63051;SHT30;49136;47.416;19.402;2022-12-18T07:30:39;-4.55;99.99
63051;SHT30;49136;47.416;19.402;2022-12-18T07:33:04;-4.45;99.99
63051;SHT30;49136;47.416;19.402;2022-12-18T07:35:29;-4.41;99.99
63051;SHT30;49136;47.416;19.402;2022-12-18T07:37:55;-4.32;99.99
63051;SHT30;49136;47.416;19.402;2022-12-18T07:40:30;-4.19;99.99
63051;SHT30;49136;47.416;19.402;2022-12-18T07:42:56;-4.14;99.99
63051;SHT30;49136;47.416;19.402;2022-12-18T07:45:21;-4.04;99.99
63051;SHT30;49136;47.416;19.402;2022-12-18T07:47:47;-3.93;99.99
63051;SHT30;49136;47.416;19.402;2022-12-18T07:50:12;-3.80;99.99
63051;SHT30;49136;47.416;19.402;2022-12-18T07:52:38;-3.72;99.99
63051;SHT30;49136;47.416;19.402;2022-12-18T07:55:04;-3.62;99.99
63051;SHT30;49136;47.416;19.402;2022-12-18T07:57:29;-3.54;99.99
63051;SHT30;49136;47.416;19.402;2022-12-18T08:00:09;-3.38;99.99
63051;SHT30;49136;47.416;19.402;2022-12-18T08:02:34;-3.28;99.99
63051;SHT30;49136;47.416;19.402;2022-12-18T08:05:00;-3.16;99.99
63051;SHT30;49136;47.416;19.402;2022-12-18T08:07:25;-3.02;99.99
63051;SHT30;49136;47.416;19.402;2022-12-18T08:13:09;-2.71;99.99
63051;SHT30;49136;47.416;19.402;2022-12-18T08:15:34;-2.57;99.99
63051;SHT30;49136;47.416;19.402;2022-12-18T08:18:00;-2.43;99.99
63051;SHT30;49136;47.416;19.402;2022-12-18T08:20:26;-2.29;99.99
63051;SHT30;49136;47.416;19.402;2022-12-18T08:22:54;-2.19;99.99
63051;SHT30;49136;47.416;19.402;2022-12-18T08:25:19;-2.05;99.99
63051;SHT30;49136;47.416;19.402;2022-12-18T08:27:44;-1.92;99.99
63051;SHT30;49136;47.416;19.402;2022-12-18T08:30:17;-1.77;99.66
63051;SHT30;49136;47.416;19.402;2022-12-18T08:32:43;-1.60;99.28
63051;SHT30;49136;47.416;19.402;2022-12-18T08:35:08;-1.43;98.86
63051;SHT30;49136;47.416;19.402;2022-12-18T08:37:36;-1.21;98.85
63051;SHT30;49136;47.416;19.402;2022-12-18T08:40:16;-1.00;97.61
63051;SHT30;49136;47.416;19.402;2022-12-18T08:42:41;-0.77;97.71
63051;SHT30;49136;47.416;19.402;2022-12-18T08:45:25;-0.59;96.34
63051;SHT30;49136;47.416;19.402;2022-12-18T08:47:51;-0.44;95.35
63051;SHT30;49136;47.416;19.402;2022-12-18T08:53:30;-0.10;93.88
63051;SHT30;49136;47.416;19.402;2022-12-18T08:55:56;0.03;93.20
63051;SHT30;49136;47.416;19.402;2022-12-18T08:58:21;0.19;92.71
63051;SHT30;49136;47.416;19.402;2022-12-18T09:00:54;0.35;92.54
63051;SHT30;49136;47.416;19.402;2022-12-18T09:03:37;0.44;91.69
63051;SHT30;49136;47.416;19.402;2022-12-18T09:06:24;0.58;91.16
63051;SHT30;49136;47.416;19.402;2022-12-18T09:13:21;0.98;90.04
63051;SHT30;49136;47.416;19.402;2022-12-18T09:15:58;1.14;90.24
63051;SHT30;49136;47.416;19.402;2022-12-18T09:18:24;1.24;89.77
63051;SHT30;49136;47.416;19.402;2022-12-18T09:21:20;1.11;88.94
63051;SHT30;49136;47.416;19.402;2022-12-18T09:23:53;1.00;87.91
63051;SHT30;49136;47.416;19.402;2022-12-18T09:26:20;1.08;88.25
63051;SHT30;49136;47.416;19.402;2022-12-18T09:28:46;1.38;89.87
63051;SHT30;49136;47.416;19.402;2022-12-18T09:31:12;1.53;88.54
63051;SHT30;49136;47.416;19.402;2022-12-18T09:33:38;1.68;87.97
63051;SHT30;49136;47.416;19.402;2022-12-18T09:36:06;1.82;86.99
63051;SHT30;49136;47.416;19.402;2022-12-18T09:38:32;1.81;86.14
63051;SHT30;49136;47.416;19.402;2022-12-18T09:43:50;1.88;87.47
63051;SHT30;49136;47.416;19.402;2022-12-18T09:46:36;1.99;85.65
63051;SHT30;49136;47.416;19.402;2022-12-18T09:49:09;2.02;84.53
63051;SHT30;49136;47.416;19.402;2022-12-18T09:54:58;2.34;85.42
63051;SHT30;49136;47.416;19.402;2022-12-18T09:57:24;2.41;84.54
63051;SHT30;49136;47.416;19.402;2022-12-18T10:00:02;2.44;84.79
63051;SHT30;49136;47.416;19.402;2022-12-18T10:02:37;2.44;84.36
63051;SHT30;49136;47.416;19.402;2022-12-18T10:05:04;2.50;85.19
63051;SHT30;49136;47.416;19.402;2022-12-18T10:13:40;2.68;83.42
63051;SHT30;49136;47.416;19.402;2022-12-18T10:16:20;2.92;85.33
63051;SHT30;49136;47.416;19.402;2022-12-18T10:27:39;2.98;81.73
63051;SHT30;49136;47.416;19.402;2022-12-18T10:30:17;2.99;82.21
63051;SHT30;49136;47.416;19.402;2022-12-18T10:33:16;3.06;83.35
63051;SHT30;49136;47.416;19.402;2022-12-18T10:35:43;3.16;82.53
63051;SHT30;49136;47.416;19.402;2022-12-18T10:48:23;3.26;79.80
63051;SHT30;49136;47.416;19.402;2022-12-18T10:51:19;3.34;79.71
63051;SHT30;49136;47.416;19.402;2022-12-18T10:53:56;3.37;80.11
63051;SHT30;49136;47.416;19.402;2022-12-18T10:56:26;3.50;79.95
63051;SHT30;49136;47.416;19.402;2022-12-18T10:59:01;3.41;78.18
63051;SHT30;49136;47.416;19.402;2022-12-18T11:01:44;3.62;79.87
63051;SHT30;49136;47.416;19.402;2022-12-18T11:04:16;3.51;79.64
63051;SHT30;49136;47.416;19.402;2022-12-18T11:09:20;3.71;79.76
63051;SHT30;49136;47.416;19.402;2022-12-18T11:11:54;3.72;79.02
63051;SHT30;49136;47.416;19.402;2022-12-18T11:14:25;3.76;78.81
63051;SHT30;49136;47.416;19.402;2022-12-18T11:16:52;3.78;79.57
63051;SHT30;49136;47.416;19.402;2022-12-18T11:19:38;3.69;78.62
63051;SHT30;49136;47.416;19.402;2022-12-18T11:22:28;3.86;80.58
63051;SHT30;49136;47.416;19.402;2022-12-18T11:24:57;4.00;80.01
63051;SHT30;49136;47.416;19.402;2022-12-18T11:27:23;4.04;79.73
63051;SHT30;49136;47.416;19.402;2022-12-18T11:29:50;4.06;79.23
63051;SHT30;49136;47.416;19.402;2022-12-18T11:35:57;3.89;79.12
63051;SHT30;49136;47.416;19.402;2022-12-18T11:38:35;3.90;78.70
63051;SHT30;49136;47.416;19.402;2022-12-18T11:41:07;3.87;79.02
63051;SHT30;49136;47.416;19.402;2022-12-18T11:44:06;3.82;78.81
63051;SHT30;49136;47.416;19.402;2022-12-18T11:46:38;3.89;78.60
63051;SHT30;49136;47.416;19.402;2022-12-18T11:49:17;3.82;77.77
63051;SHT30;49136;47.416;19.402;2022-12-18T11:54:55;4.04;77.71
63051;SHT30;49136;47.416;19.402;2022-12-18T11:57:34;3.89;77.16
63051;SHT30;49136;47.416;19.402;2022-12-18T12:00:19;3.87;77.33
63051;SHT30;49136;47.416;19.402;2022-12-18T12:14:40;4.11;78.66
63051;SHT30;49136;47.416;19.402;2022-12-18T12:17:48;4.04;77.82
63051;SHT30;49136;47.416;19.402;2022-12-18T12:20:20;4.04;78.50
63051;SHT30;49136;47.416;19.402;2022-12-18T12:30:53;3.81;78.03
63051;SHT30;49136;47.416;19.402;2022-12-18T12:39:38;3.62;78.97
63051;SHT30;49136;47.416;19.402;2022-12-18T12:42:44;3.58;78.58
63051;SHT30;49136;47.416;19.402;2022-12-18T12:48:55;3.45;78.93
63051;SHT30;49136;47.416;19.402;2022-12-18T12:51:24;3.52;77.85
63051;SHT30;49136;47.416;19.402;2022-12-18T12:53:51;3.57;78.05
63051;SHT30;49136;47.416;19.402;2022-12-18T12:56:19;3.50;77.66
63051;SHT30;49136;47.416;19.402;2022-12-18T12:59:30;3.54;78.20
63051;SHT30;49136;47.416;19.402;2022-12-18T13:08:31;3.50;79.06
63051;SHT30;49136;47.416;19.402;2022-12-18T13:11:43;3.47;78.70
63051;SHT30;49136;47.416;19.402;2022-12-18T13:14:37;3.30;77.70
63051;SHT30;49136;47.416;19.402;2022-12-18T13:17:30;3.31;78.96
63051;SHT30;49136;47.416;19.402;2022-12-18T13:20:08;3.20;78.62
63051;SHT30;49136;47.416;19.402;2022-12-18T13:22:37;3.14;79.51
63051;SHT30;49136;47.416;19.402;2022-12-18T13:25:35;3.06;79.92
63051;SHT30;49136;47.416;19.402;2022-12-18T13:31:01;2.91;81.04
63051;SHT30;49136;47.416;19.402;2022-12-18T13:33:38;2.89;80.53
63051;SHT30;49136;47.416;19.402;2022-12-18T13:36:29;2.82;80.57
63051;SHT30;49136;47.416;19.402;2022-12-18T13:39:11;2.77;80.81
63051;SHT30;49136;47.416;19.402;2022-12-18T13:41:41;2.74;81.50
63051;SHT30;49136;47.416;19.402;2022-12-18T13:44:25;2.74;82.34
63051;SHT30;49136;47.416;19.402;2022-12-18T13:47:03;2.66;81.59
63051;SHT30;49136;47.416;19.402;2022-12-18T13:52:26;2.44;82.17
63051;SHT30;49136;47.416;19.402;2022-12-18T13:54:55;2.34;83.16
63051;SHT30;49136;47.416;19.402;2022-12-18T13:57:34;2.32;83.34
63051;SHT30;49136;47.416;19.402;2022-12-18T14:00:32;2.25;83.28
63051;SHT30;49136;47.416;19.402;2022-12-18T14:06:07;2.05;83.86
63051;SHT30;49136;47.416;19.402;2022-12-18T14:08:38;1.95;84.15
63051;SHT30;49136;47.416;19.402;2022-12-18T14:11:05;1.93;84.10
63051;SHT30;49136;47.416;19.402;2022-12-18T14:13:48;1.82;85.05
63051;SHT30;49136;47.416;19.402;2022-12-18T14:16:15;1.71;85.09
63051;SHT30;49136;47.416;19.402;2022-12-18T14:18:45;1.68;84.96
63051;SHT30;49136;47.416;19.402;2022-12-18T14:21:30;1.60;85.61
63051;SHT30;49136;47.416;19.402;2022-12-18T14:26:34;1.35;85.79
63051;SHT30;49136;47.416;19.402;2022-12-18T14:29:17;1.22;86.16
63051;SHT30;49136;47.416;19.402;2022-12-18T14:34:41;0.97;87.33
63051;SHT30;49136;47.416;19.402;2022-12-18T14:37:10;0.84;87.91
63051;SHT30;49136;47.416;19.402;2022-12-18T14:39:36;0.67;88.17
63051;SHT30;49136;47.416;19.402;2022-12-18T14:42:01;0.55;88.48
63051;SHT30;49136;47.416;19.402;2022-12-18T14:44:28;0.42;88.93
63051;SHT30;49136;47.416;19.402;2022-12-18T14:46:55;0.28;89.47
63051;SHT30;49136;47.416;19.402;2022-12-18T14:49:22;0.11;90.09
63051;SHT30;49136;47.416;19.402;2022-12-18T14:52:20;-0.06;91.16
63051;SHT30;49136;47.416;19.402;2022-12-18T14:54:48;-0.21;91.58
63051;SHT30;49136;47.416;19.402;2022-12-18T14:57:35;-0.36;91.94
63051;SHT30;49136;47.416;19.402;2022-12-18T15:00:06;-0.53;92.60
63051;SHT30;49136;47.416;19.402;2022-12-18T15:02:36;-0.69;93.17
63051;SHT30;49136;47.416;19.402;2022-12-18T15:05:16;-0.81;93.73
63051;SHT30;49136;47.416;19.402;2022-12-18T15:10:52;-1.12;95.60
63051;SHT30;49136;47.416;19.402;2022-12-18T15:13:23;-1.24;95.86
63051;SHT30;49136;47.416;19.402;2022-12-18T15:15:50;-1.24;96.03
63051;SHT30;49136;47.416;19.402;2022-12-18T15:18:19;-1.32;96.10
63051;SHT30;49136;47.416;19.402;2022-12-18T15:20:56;-1.52;96.49
63051;SHT30;49136;47.416;19.402;2022-12-18T15:26:15;-1.64;97.20
63051;SHT30;49136;47.416;19.402;2022-12-18T15:28:55;-1.80;97.61
63051;SHT30;49136;47.416;19.402;2022-12-18T15:31:36;-1.88;98.49
63051;SHT30;49136;47.416;19.402;2022-12-18T15:34:23;-1.91;99.04
63051;SHT30;49136;47.416;19.402;2022-12-18T15:36:50;-1.99;99.11
63051;SHT30;49136;47.416;19.402;2022-12-18T15:39:17;-2.05;99.42
63051;SHT30;49136;47.416;19.402;2022-12-18T15:41:43;-2.12;99.46
63051;SHT30;49136;47.416;19.402;2022-12-18T15:44:29;-2.22;99.99
63051;SHT30;49136;47.416;19.402;2022-12-18T15:46:54;-2.25;99.83
63051;SHT30;49136;47.416;19.402;2022-12-18T15:49:20;-2.25;99.99
63051;SHT30;49136;47.416;19.402;2022-12-18T15:51:59;-2.33;99.99
63051;SHT30;49136;47.416;19.402;2022-12-18T15:54:25;-2.37;99.99
63051;SHT30;49136;47.416;19.402;2022-12-18T15:57:11;-2.41;99.99
63051;SHT30;49136;47.416;19.402;2022-12-18T16:00:01;-2.44;99.99
63051;SHT30;49136;47.416;19.402;2022-12-18T16:02:26;-2.47;99.99
63051;SHT30;49136;47.416;19.402;2022-12-18T16:04:54;-2.41;99.99
63051;SHT30;49136;47.416;19.402;2022-12-18T16:07:21;-2.50;99.99
63051;SHT30;49136;47.416;19.402;2022-12-18T16:09:48;-2.60;99.99
63051;SHT30;49136;47.416;19.402;2022-12-18T16:12:20;-2.65;99.99
63051;SHT30;49136;47.416;19.402;2022-12-18T16:14:47;-2.72;99.99
63051;SHT30;49136;47.416;19.402;2022-12-18T16:17:15;-2.84;99.99
63051;SHT30;49136;47.416;19.402;2022-12-18T16:19:41;-2.86;99.99
63051;SHT30;49136;47.416;19.402;2022-12-18T16:22:19;-2.84;99.99
63051;SHT30;49136;47.416;19.402;2022-12-18T16:24:46;-2.85;99.99
63051;SHT30;49136;47.416;19.402;2022-12-18T16:27:29;-2.91;99.99
63051;SHT30;49136;47.416;19.402;2022-12-18T16:29:55;-2.93;99.99
63051;SHT30;49136;47.416;19.402;2022-12-18T16:32:21;-3.00;99.99
63051;SHT30;49136;47.416;19.402;2022-12-18T16:34:48;-2.97;99.99
63051;SHT30;49136;47.416;19.402;2022-12-18T16:37:21;-3.03;99.99
63051;SHT30;49136;47.416;19.402;2022-12-18T16:39:47;-3.06;99.99
63051;SHT30;49136;47.416;19.402;2022-12-18T16:42:18;-3.16;99.99
63051;SHT30;49136;47.416;19.402;2022-12-18T16:44:46;-3.23;99.99
63051;SHT30;49136;47.416;19.402;2022-12-18T16:47:15;-3.33;99.99
63051;SHT30;49136;47.416;19.402;2022-12-18T16:49:41;-3.41;99.99
63051;SHT30;49136;47.416;19.402;2022-12-18T16:52:07;-3.41;99.99
63051;SHT30;49136;47.416;19.402;2022-12-18T16:54:33;-3.45;99.99
63051;SHT30;49136;47.416;19.402;2022-12-18T16:57:02;-3.52;99.99
63051;SHT30;49136;47.416;19.402;2022-12-18T16:59:30;-3.55;99.99
63051;SHT30;49136;47.416;19.402;2022-12-18T17:01:55;-3.56;99.99
63051;SHT30;49136;47.416;19.402;2022-12-18T17:04:21;-3.63;99.99
63051;SHT30;49136;47.416;19.402;2022-12-18T17:07:01;-3.62;99.99
63051;SHT30;49136;47.416;19.402;2022-12-18T17:09:29;-3.69;99.99
63051;SHT30;49136;47.416;19.402;2022-12-18T17:11:55;-3.75;99.99
63051;SHT30;49136;47.416;19.402;2022-12-18T17:14:22;-3.78;99.99
63051;SHT30;49136;47.416;19.402;2022-12-18T17:17:01;-3.75;99.99
63051;SHT30;49136;47.416;19.402;2022-12-18T17:19:28;-3.76;99.99
63051;SHT30;49136;47.416;19.402;2022-12-18T17:21:54;-3.71;99.99
63051;SHT30;49136;47.416;19.402;2022-12-18T17:24:20;-3.62;99.99
63051;SHT30;49136;47.416;19.402;2022-12-18T17:26:57;-3.68;99.99
63051;SHT30;49136;47.416;19.402;2022-12-18T17:29:23;-3.75;99.99
63051;SHT30;49136;47.416;19.402;2022-12-18T17:31:49;-3.76;99.99
63051;SHT30;49136;47.416;19.402;2022-12-18T17:34:15;-3.82;99.99
63051;SHT30;49136;47.416;19.402;2022-12-18T17:36:41;-3.86;99.99
63051;SHT30;49136;47.416;19.402;2022-12-18T17:39:07;-3.85;99.99
63051;SHT30;49136;47.416;19.402;2022-12-18T17:41:36;-3.91;99.99
63051;SHT30;49136;47.416;19.402;2022-12-18T17:44:04;-4.01;99.99
63051;SHT30;49136;47.416;19.402;2022-12-18T17:46:31;-4.06;99.99
63051;SHT30;49136;47.416;19.402;2022-12-18T17:48:59;-4.13;99.99
63051;SHT30;49136;47.416;19.402;2022-12-18T17:51:26;-4.15;99.99
63051;SHT30;49136;47.416;19.402;2022-12-18T17:53:52;-4.18;99.99
63051;SHT30;49136;47.416;19.402;2022-12-18T17:56:31;-4.21;99.99
63051;SHT30;49136;47.416;19.402;2022-12-18T17:58:59;-4.24;99.99
63051;SHT30;49136;47.416;19.402;2022-12-18T18:01:25;-4.32;99.99
63051;SHT30;49136;47.416;19.402;2022-12-18T18:03:52;-4.28;99.99
63051;SHT30;49136;47.416;19.402;2022-12-18T18:06:26;-4.29;99.99
63051;SHT30;49136;47.416;19.402;2022-12-18T18:08:52;-4.33;99.99
63051;SHT30;49136;47.416;19.402;2022-12-18T18:11:20;-4.33;99.99
63051;SHT30;49136;47.416;19.402;2022-12-18T18:14:15;-4.39;99.99
63051;SHT30;49136;47.416;19.402;2022-12-18T18:16:44;-4.46;99.99
63051;SHT30;49136;47.416;19.402;2022-12-18T18:19:16;-4.49;99.99
63051;SHT30;49136;47.416;19.402;2022-12-18T18:21:44;-4.52;99.99